createdAt,value
2019-05-23T00:00:44.684Z,100007.69
2019-05-23T00:03:18.975Z,100004.91
2019-05-23T00:05:52.594Z,100005.19
2019-05-23T00:08:27.137Z,100004.16
2019-05-23T00:11:15.770Z,99996.25
2019-05-23T00:13:52.182Z,99996.49
2019-05-23T00:16:24.517Z,99995.33
2019-05-23T00:18:56.542Z,100000.36
2019-05-23T00:21:28.295Z,100001.97
2019-05-23T00:24:00.454Z,100009.48
2019-05-23T00:26:32.770Z,100008.65
2019-05-23T00:29:10.776Z,100014.98
2019-05-23T00:31:46.535Z,100013.78
2019-05-23T00:34:17.926Z,100020.55
2019-05-23T00:36:49.728Z,100014.59
2019-05-23T00:39:23.278Z,100015.52
2019-05-23T00:41:56.563Z,100015.19
2019-05-23T00:44:29.142Z,100007.97
2019-05-23T00:47:01.771Z,100009.44
2019-05-23T00:49:33.850Z,100011.30
2019-05-23T00:52:06.151Z,100014.89
2019-05-23T00:54:36.909Z,100010.39
2019-05-23T00:57:09.779Z,100001.25
2019-05-23T00:59:41.853Z,100002.57
2019-05-23T01:02:13.011Z,100000.23
2019-05-23T01:04:45.447Z,99998.41
2019-05-23T01:07:19.651Z,99995.92
2019-05-23T01:09:50.836Z,99985.69
2019-05-23T01:12:22.831Z,99980.02
2019-05-23T01:14:54.173Z,99977.85
2019-05-23T01:17:27.524Z,99976.89
2019-05-23T01:19:59.150Z,99981.27
2019-05-23T01:22:30.412Z,99987.08
2019-05-23T01:25:01.387Z,99990.23
2019-05-23T01:27:32.593Z,99986.36
2019-05-23T01:30:07.386Z,99984.14
2019-05-23T01:32:47.401Z,99997.30
2019-05-23T01:35:24.067Z,100005.10
2019-05-23T01:37:55.340Z,99987.39
2019-05-23T01:40:26.289Z,99977.16
2019-05-23T01:42:57.353Z,99972.84
2019-05-23T01:45:30.317Z,99976.16
2019-05-23T01:48:01.914Z,99982.86
2019-05-23T01:50:32.731Z,99978.67
2019-05-23T01:53:06.531Z,99981.49
2019-05-23T01:55:37.403Z,99981.08
2019-05-23T01:58:09.586Z,99991.42
2019-05-23T02:00:40.393Z,99973.50
2019-05-23T02:03:11.421Z,99964.17
2019-05-23T02:05:42.534Z,99966.95
2019-05-23T02:08:15.595Z,99968.33
2019-05-23T02:10:48.222Z,99968.73
2019-05-23T02:13:19.591Z,99974.22
2019-05-23T02:15:50.354Z,99974.58
2019-05-23T02:18:22.119Z,99973.46
2019-05-23T02:20:52.874Z,99963.58
2019-05-23T02:23:24.133Z,99964.09
2019-05-23T02:25:58.023Z,99964.42
2019-05-23T02:28:30.330Z,99970.22
2019-05-23T02:30:58.571Z,99974.82
2019-05-23T02:33:29.507Z,99971.98
2019-05-23T02:36:00.991Z,99974.27
2019-05-23T02:39:05.839Z,99972.14
2019-05-23T02:41:50.830Z,99969.05
2019-05-23T02:44:24.760Z,99967.58
2019-05-23T02:47:04.363Z,99968.09
2019-05-23T02:49:37.388Z,99977.82
2019-05-23T02:52:23.382Z,99979.50
2019-05-23T02:54:57.338Z,99983.17
2019-05-23T02:57:30.414Z,99980.78
2019-05-23T03:00:11.375Z,99980.83
2019-05-23T03:03:05.158Z,99979.55
2019-05-23T03:05:37.530Z,99976.98
2019-05-23T03:08:10.298Z,99970.95
2019-05-23T03:11:15.965Z,99963.80
2019-05-23T03:13:48.290Z,99957.41
2019-05-23T03:16:23.488Z,99962.81
2019-05-23T03:19:00.012Z,99963.37
2019-05-23T03:21:31.446Z,99961.51
2019-05-23T03:24:02.459Z,99958.89
2019-05-23T03:27:00.422Z,99951.62
2019-05-23T03:29:34.749Z,99948.86
2019-05-23T03:32:25.321Z,99941.10
2019-05-23T03:35:05.549Z,99937.46
2019-05-23T03:37:36.478Z,99926.16
2019-05-23T03:40:07.560Z,99922.38
2019-05-23T03:42:38.752Z,99921.50
2019-05-23T03:45:13.880Z,99922.40
2019-05-23T03:47:46.026Z,99918.64
2019-05-23T03:50:16.897Z,99926.85
2019-05-23T03:52:47.621Z,99928.22
2019-05-23T03:55:18.903Z,99931.16
2019-05-23T03:57:50.466Z,99927.64
2019-05-23T04:00:25.168Z,99923.59
2019-05-23T04:02:57.574Z,99923.69
2019-05-23T04:05:29.747Z,99923.16
2019-05-23T04:08:01.934Z,99925.11
2019-05-23T04:10:33.030Z,99928.45
2019-05-23T04:13:04.324Z,99938.07
2019-05-23T04:15:35.465Z,99943.06
2019-05-23T04:18:08.412Z,99939.31
2019-05-23T04:20:39.435Z,99943.62
2019-05-23T04:23:10.502Z,99948.81
2019-05-23T04:25:41.304Z,99954.73
2019-05-23T04:28:13.220Z,99957.50
2019-05-23T04:30:44.742Z,99959.69
2019-05-23T04:33:15.579Z,99959.56
2019-05-23T04:35:48.368Z,99962.92
2019-05-23T04:38:19.169Z,99960.52
2019-05-23T04:40:50.202Z,99957.92
2019-05-23T04:43:21.473Z,99961.94
2019-05-23T04:45:52.204Z,99963.22
2019-05-23T04:48:24.512Z,99967.27
2019-05-23T04:50:59.770Z,99968.75
2019-05-23T04:53:28.406Z,99970.30
2019-05-23T04:55:59.232Z,99968.59
2019-05-23T04:58:30.896Z,99967.97
2019-05-23T05:01:03.375Z,99971.16
2019-05-23T05:03:34.648Z,99966.03
2019-05-23T05:06:07.192Z,99972.45
2019-05-23T05:08:38.301Z,99967.64
2019-05-23T05:11:10.352Z,99969.27
2019-05-23T05:13:41.501Z,99984.03
2019-05-23T05:16:13.218Z,99983.83
2019-05-23T05:18:44.239Z,99985.56
2019-05-23T05:21:16.028Z,99984.02
2019-05-23T05:23:46.799Z,99985.55
2019-05-23T05:26:22.889Z,99982.81
2019-05-23T05:28:53.932Z,99978.41
2019-05-23T05:31:25.680Z,99987.53
2019-05-23T05:33:56.699Z,99987.20
2019-05-23T05:36:27.579Z,99985.64
2019-05-23T05:38:58.303Z,99985.34
2019-05-23T05:41:29.142Z,99992.44
2019-05-23T05:44:00.811Z,99993.25
2019-05-23T05:46:33.396Z,99991.02
2019-05-23T05:49:05.695Z,99983.00
2019-05-23T05:51:36.279Z,99974.48
2019-05-23T05:54:09.806Z,99991.08
2019-05-23T05:56:41.505Z,99991.34
2019-05-23T05:59:13.191Z,99987.05
2019-05-23T06:01:43.693Z,99994.09
2019-05-23T06:04:14.658Z,99987.83
2019-05-23T06:06:52.837Z,99985.56
2019-05-23T06:09:27.824Z,99987.33
2019-05-23T06:11:58.713Z,99994.89
2019-05-23T06:14:29.477Z,99995.09
2019-05-23T06:17:01.244Z,100004.89
2019-05-23T06:19:32.764Z,100010.63
2019-05-23T06:22:04.631Z,100008.20
2019-05-23T06:24:46.702Z,100008.52
2019-05-23T06:27:13.868Z,100005.47
2019-05-23T06:29:47.947Z,100013.10
2019-05-23T06:32:21.278Z,100020.10
2019-05-23T06:34:55.511Z,100023.41
2019-05-23T06:37:28.244Z,100027.02
2019-05-23T06:39:59.298Z,100026.42
2019-05-23T06:42:30.693Z,100030.37
2019-05-23T06:45:02.785Z,100030.20
2019-05-23T06:47:33.229Z,100042.10
2019-05-23T06:50:05.674Z,100037.22
2019-05-23T06:52:39.088Z,100035.59
2019-05-23T06:55:10.451Z,100037.63
2019-05-23T06:57:41.431Z,100039.12
2019-05-23T07:00:15.276Z,100034.25
2019-05-23T07:02:48.411Z,100032.91
2019-05-23T07:05:22.073Z,100026.66
2019-05-23T07:07:52.644Z,100027.73
2019-05-23T07:10:25.638Z,100035.52
2019-05-23T07:12:56.126Z,100035.12
2019-05-23T07:15:29.060Z,100034.97
2019-05-23T07:18:00.979Z,100046.17
2019-05-23T07:20:32.071Z,100048.98
2019-05-23T07:23:02.460Z,100043.91
2019-05-23T07:25:32.906Z,100044.10
2019-05-23T07:28:03.813Z,100050.32
2019-05-23T07:30:34.348Z,100047.34
2019-05-23T07:33:04.912Z,100051.48
2019-05-23T07:35:35.319Z,100049.33
2019-05-23T07:38:06.066Z,100043.72
2019-05-23T07:40:36.533Z,100046.50
2019-05-23T07:43:08.674Z,100058.26
2019-05-23T07:45:53.503Z,100060.37
2019-05-23T07:48:24.306Z,100072.93
2019-05-23T07:50:54.718Z,100070.26
2019-05-23T07:53:46.934Z,100064.23
2019-05-23T07:56:19.642Z,100065.90
2019-05-23T07:58:50.113Z,100070.83
2019-05-23T08:01:23.235Z,100064.61
2019-05-23T08:03:53.925Z,100069.23
2019-05-23T08:06:24.547Z,100061.23
2019-05-23T08:08:55.215Z,100068.34
2019-05-23T08:11:27.427Z,100065.29
2019-05-23T08:13:59.327Z,100065.23
2019-05-23T08:16:29.742Z,100062.34
2019-05-23T08:19:00.411Z,100068.17
2019-05-23T08:21:30.913Z,100068.77
2019-05-23T08:24:02.147Z,100065.05
2019-05-23T08:26:34.160Z,100067.43
2019-05-23T08:29:24.654Z,100062.36
2019-05-23T08:31:38.036Z,100062.55
2019-05-23T08:34:09.081Z,100058.70
2019-05-23T08:36:40.103Z,100056.41
2019-05-23T08:39:14.436Z,100056.93
2019-05-23T08:41:45.597Z,100054.03
2019-05-23T08:44:16.230Z,100051.44
2019-05-23T08:46:47.446Z,100046.45
2019-05-23T08:49:18.168Z,100042.08
2019-05-23T08:51:48.973Z,100042.16
2019-05-23T08:54:19.353Z,100042.38
2019-05-23T08:56:50.418Z,100044.01
2019-05-23T08:59:22.045Z,100045.05
2019-05-23T09:01:52.920Z,100042.92
2019-05-23T09:04:24.210Z,100039.32
2019-05-23T09:06:57.456Z,100042.29
2019-05-23T09:09:30.542Z,100042.00
2019-05-23T09:12:01.739Z,100033.19
2019-05-23T09:14:32.457Z,100044.08
2019-05-23T09:17:04.461Z,100044.44
2019-05-23T09:19:37.206Z,100044.85
2019-05-23T09:22:08.184Z,100041.22
2019-05-23T09:24:45.374Z,100039.27
2019-05-23T09:27:15.976Z,100043.52
2019-05-23T09:29:46.920Z,100032.88
2019-05-23T09:32:19.397Z,100031.13
2019-05-23T09:34:50.133Z,100021.33
2019-05-23T09:37:21.450Z,100029.64
2019-05-23T09:39:52.117Z,100026.52
2019-05-23T09:42:22.942Z,100030.20
2019-05-23T09:44:53.497Z,100018.56
2019-05-23T09:47:23.988Z,100020.63
2019-05-23T09:49:54.758Z,100012.84
2019-05-23T09:52:27.151Z,100015.41
2019-05-23T09:54:58.391Z,100016.07
2019-05-23T09:57:29.431Z,100005.77
2019-05-23T10:00:01.616Z,100007.84
2019-05-23T10:02:32.823Z,100011.96
2019-05-23T10:05:03.746Z,100006.02
2019-05-23T10:07:34.736Z,100003.30
2019-05-23T10:10:06.319Z,99996.59
2019-05-23T10:12:37.509Z,99999.72
2019-05-23T10:15:10.650Z,100000.44
2019-05-23T10:17:41.805Z,99984.31
2019-05-23T10:20:14.474Z,99995.91
2019-05-23T10:22:45.056Z,100001.16
2019-05-23T10:25:15.867Z,100005.57
2019-05-23T10:27:46.706Z,99998.95
2019-05-23T10:30:19.573Z,99988.70
2019-05-23T10:32:50.832Z,99989.08
2019-05-23T10:35:23.501Z,99987.76
2019-05-23T10:37:54.564Z,99981.80
2019-05-23T10:40:25.651Z,99985.25
2019-05-23T10:42:56.550Z,99980.96
2019-05-23T10:45:27.791Z,99981.43
2019-05-23T10:47:59.163Z,99979.88
2019-05-23T10:50:43.627Z,99979.71
2019-05-23T10:53:02.706Z,99984.69
2019-05-23T10:55:34.191Z,99973.01
2019-05-23T10:58:06.932Z,99975.73
2019-05-23T11:00:39.860Z,99985.17
2019-05-23T11:03:12.373Z,99975.85
2019-05-23T11:05:44.017Z,99969.08
2019-05-23T11:08:15.401Z,99967.06
2019-05-23T11:10:47.646Z,99967.73
2019-05-23T11:13:18.590Z,99972.44
2019-05-23T11:15:49.406Z,99969.11
2019-05-23T11:18:21.861Z,99974.42
2019-05-23T11:20:52.731Z,99974.84
2019-05-23T11:23:26.748Z,99965.05
2019-05-23T11:26:01.005Z,99966.71
2019-05-23T11:28:32.026Z,99963.87
2019-05-23T11:31:04.301Z,99967.92
2019-05-23T11:33:35.975Z,99961.59
2019-05-23T11:36:07.496Z,99959.74
2019-05-23T11:38:41.649Z,99953.89
2019-05-23T11:41:13.140Z,99944.98
2019-05-23T11:43:44.998Z,99936.45
2019-05-23T11:46:27.940Z,99947.05
2019-05-23T11:48:58.657Z,99938.89
2019-05-23T11:51:29.443Z,99942.59
2019-05-23T11:54:09.684Z,99942.37
2019-05-23T11:56:35.507Z,99937.70
2019-05-23T11:59:06.692Z,99938.39
2019-05-23T12:01:55.608Z,99948.62
2019-05-23T12:04:30.218Z,99953.60
2019-05-23T12:07:26.115Z,99960.16
2019-05-23T12:09:57.532Z,99958.56
2019-05-23T12:12:28.543Z,99958.48
2019-05-23T12:14:59.134Z,99967.77
2019-05-23T12:17:32.578Z,99955.10
2019-05-23T12:20:03.044Z,99949.80
2019-05-23T12:22:33.889Z,99941.13
2019-05-23T12:25:21.430Z,99946.89
2019-05-23T12:27:38.143Z,99944.40
2019-05-23T12:30:11.599Z,99936.70
2019-05-23T12:32:42.518Z,99932.52
2019-05-23T12:35:13.879Z,99941.66
2019-05-23T12:37:45.933Z,99942.44
2019-05-23T12:40:17.000Z,99940.41
2019-05-23T12:42:48.021Z,99948.02
2019-05-23T12:45:19.340Z,99950.52
2019-05-23T12:48:03.852Z,99954.53
2019-05-23T12:50:44.344Z,99954.08
2019-05-23T12:53:16.357Z,99957.57
2019-05-23T12:55:47.039Z,99955.42
2019-05-23T12:58:19.095Z,99957.84
2019-05-23T13:00:55.958Z,99956.86
2019-05-23T13:03:27.004Z,99956.69
2019-05-23T13:05:57.438Z,99955.58
2019-05-23T13:08:29.714Z,99956.92
2019-05-23T13:11:00.418Z,99958.64
2019-05-23T13:13:31.240Z,99954.08
2019-05-23T13:16:02.004Z,99946.34
2019-05-23T13:18:32.577Z,99945.66
2019-05-23T13:21:02.887Z,99939.32
2019-05-23T13:23:34.889Z,99928.13
2019-05-23T13:26:05.927Z,99929.61
2019-05-23T13:28:36.464Z,99937.63
2019-05-23T13:31:06.895Z,99939.27
2019-05-23T13:33:37.600Z,99943.19
2019-05-23T13:36:08.003Z,99941.36
2019-05-23T13:38:39.027Z,99943.59
2019-05-23T13:41:12.670Z,99940.32
2019-05-23T13:43:43.523Z,99940.00
2019-05-23T13:46:14.482Z,99935.97
2019-05-23T13:48:45.028Z,99935.52
2019-05-23T13:51:15.500Z,99929.77
2019-05-23T13:53:45.982Z,99924.20
2019-05-23T13:56:17.420Z,99922.16
2019-05-23T13:58:48.289Z,99921.77
2019-05-23T14:01:21.532Z,99909.42
2019-05-23T14:03:53.903Z,99904.19
2019-05-23T14:06:24.941Z,99901.09
2019-05-23T14:08:55.757Z,99900.98
2019-05-23T14:11:26.567Z,99903.32
2019-05-23T14:14:00.047Z,99897.66
2019-05-23T14:16:31.730Z,99906.36
2019-05-23T14:19:04.836Z,99909.26
2019-05-23T14:21:36.633Z,99911.69
2019-05-23T14:24:07.395Z,99909.06
2019-05-23T14:26:45.171Z,99913.06
2019-05-23T14:29:15.748Z,99908.87
2019-05-23T14:31:55.079Z,99900.48
2019-05-23T14:34:26.264Z,99902.36
2019-05-23T14:37:13.117Z,99896.16
2019-05-23T14:39:45.951Z,99887.53
2019-05-23T14:42:38.376Z,99885.78
2019-05-23T14:45:19.548Z,99892.36
2019-05-23T14:48:27.583Z,99879.73
2019-05-23T14:51:08.731Z,99874.05
2019-05-23T14:53:41.288Z,99877.95
2019-05-23T14:56:12.351Z,99881.13
2019-05-23T14:58:43.100Z,99883.86
2019-05-23T15:01:13.855Z,99880.86
2019-05-23T15:03:44.566Z,99878.89
2019-05-23T15:06:15.322Z,99880.09
2019-05-23T15:08:51.120Z,99876.62
2019-05-23T15:11:19.376Z,99866.83
2019-05-23T15:13:50.274Z,99865.73
2019-05-23T15:16:22.225Z,99859.30
2019-05-23T15:18:53.068Z,99857.33
2019-05-23T15:21:24.314Z,99855.83
2019-05-23T15:23:55.719Z,99854.70
2019-05-23T15:26:26.335Z,99860.89
2019-05-23T15:28:56.878Z,99863.11
2019-05-23T15:31:27.360Z,99852.80
2019-05-23T15:33:57.985Z,99850.77
2019-05-23T15:36:28.942Z,99853.57
2019-05-23T15:39:09.565Z,99851.03
2019-05-23T15:41:32.599Z,99855.51
2019-05-23T15:44:19.437Z,99855.13
2019-05-23T15:46:36.812Z,99862.00
2019-05-23T15:49:08.241Z,99863.91
2019-05-23T15:51:44.984Z,99867.94
2019-05-23T15:54:32.685Z,99866.84
2019-05-23T15:57:25.416Z,99862.82
2019-05-23T16:00:05.439Z,99859.41
2019-05-23T16:02:42.136Z,99860.20
2019-05-23T16:05:14.230Z,99861.08
2019-05-23T16:07:45.709Z,99858.95
2019-05-23T16:10:18.575Z,99863.24
2019-05-23T16:12:50.535Z,99855.64
2019-05-23T16:15:20.888Z,99861.26
2019-05-23T16:17:52.602Z,99863.42
2019-05-23T16:20:23.729Z,99862.67
2019-05-23T16:23:14.783Z,99864.33
2019-05-23T16:25:45.453Z,99864.54
2019-05-23T16:28:16.159Z,99863.04
2019-05-23T16:30:47.325Z,99877.03
2019-05-23T16:33:17.921Z,99885.27
2019-05-23T16:35:48.424Z,99882.77
2019-05-23T16:38:18.830Z,99883.81
2019-05-23T16:40:49.572Z,99878.47
2019-05-23T16:43:20.355Z,99878.23
2019-05-23T16:45:51.365Z,99878.87
2019-05-23T16:48:21.968Z,99871.09
2019-05-23T16:50:52.679Z,99878.80
2019-05-23T16:53:23.713Z,99884.07
2019-05-23T16:56:11.439Z,99886.34
2019-05-23T16:59:04.344Z,99884.30
2019-05-23T17:01:57.859Z,99889.25
2019-05-23T17:05:09.238Z,99890.45
2019-05-23T17:07:50.245Z,99885.79
2019-05-23T17:10:32.837Z,99882.82
2019-05-23T17:13:29.264Z,99876.64
2019-05-23T17:16:10.397Z,99873.34
2019-05-23T17:19:09.366Z,99872.48
2019-05-23T17:21:49.477Z,99878.52
2019-05-23T17:24:45.607Z,99880.63
2019-05-23T17:27:35.489Z,99882.27
2019-05-23T17:30:17.940Z,99881.30
2019-05-23T17:32:48.549Z,99877.97
2019-05-23T17:35:19.121Z,99880.09
2019-05-23T17:37:50.128Z,99884.45
2019-05-23T17:40:24.993Z,99890.88
2019-05-23T17:42:53.341Z,99890.34
2019-05-23T17:45:23.791Z,99892.86
2019-05-23T17:47:54.444Z,99896.50
2019-05-23T17:50:25.753Z,99908.45
2019-05-23T17:52:56.874Z,99910.79
2019-05-23T17:55:28.480Z,99916.77
2019-05-23T17:57:59.221Z,99931.01
2019-05-23T18:00:36.442Z,99934.70
2019-05-23T18:03:08.034Z,99932.52
2019-05-23T18:05:38.734Z,99931.66
2019-05-23T18:08:10.317Z,99933.05
2019-05-23T18:10:45.137Z,99925.86
2019-05-23T18:13:15.455Z,99934.99
2019-05-23T18:15:46.921Z,99936.66
2019-05-23T18:18:21.031Z,99930.31
2019-05-23T18:20:54.088Z,99925.80
2019-05-23T18:23:24.943Z,99933.89
2019-05-23T18:25:55.574Z,99947.52
2019-05-23T18:28:26.442Z,99946.83
2019-05-23T18:31:05.535Z,99944.12
2019-05-23T18:33:33.779Z,99958.23
2019-05-23T18:36:05.071Z,99964.58
2019-05-23T18:38:36.218Z,99958.25
2019-05-23T18:41:09.193Z,99960.42
2019-05-23T18:43:40.347Z,99966.62
2019-05-23T18:46:16.366Z,99965.19
2019-05-23T18:48:47.496Z,99965.38
2019-05-23T18:51:18.595Z,99963.74
2019-05-23T18:53:49.315Z,99969.30
2019-05-23T18:56:20.625Z,99962.37
2019-05-23T18:58:51.225Z,99966.37
2019-05-23T19:01:24.454Z,99960.41
2019-05-23T19:03:55.473Z,99964.73
2019-05-23T19:06:26.038Z,99966.08
2019-05-23T19:08:56.947Z,99968.06
2019-05-23T19:11:27.643Z,99962.75
2019-05-23T19:13:58.507Z,99957.44
2019-05-23T19:16:29.447Z,99963.89
2019-05-23T19:19:00.383Z,99957.57
2019-05-23T19:21:31.658Z,99960.76
2019-05-23T19:24:03.161Z,99958.16
2019-05-23T19:26:34.653Z,99965.23
2019-05-23T19:29:05.302Z,99962.27
2019-05-23T19:31:36.530Z,99961.07
2019-05-23T19:34:07.669Z,99957.14
2019-05-23T19:36:38.425Z,99956.17
2019-05-23T19:39:09.145Z,99951.27
2019-05-23T19:41:40.349Z,99946.27
2019-05-23T19:44:10.719Z,99945.88
2019-05-23T19:46:41.166Z,99948.17
2019-05-23T19:49:11.940Z,99946.36
2019-05-23T19:51:43.837Z,99943.74
2019-05-23T19:54:14.328Z,99947.42
2019-05-23T19:56:44.594Z,99943.27
2019-05-23T19:59:14.848Z,99942.92
2019-05-23T20:02:07.008Z,99939.28
2019-05-23T20:04:40.031Z,99938.09
2019-05-23T20:07:14.642Z,99936.46
2019-05-23T20:09:42.902Z,99931.34
2019-05-23T20:12:15.241Z,99933.90
2019-05-23T20:14:45.847Z,99939.24
2019-05-23T20:17:16.829Z,99930.28
2019-05-23T20:19:50.248Z,99922.51
2019-05-23T20:22:19.993Z,99926.83
2019-05-23T20:24:50.626Z,99920.03
2019-05-23T20:27:21.561Z,99919.98
2019-05-23T20:29:52.213Z,99917.37
2019-05-23T20:32:24.542Z,99908.90
2019-05-23T20:34:55.337Z,99904.60
2019-05-23T20:37:28.095Z,99910.57
2019-05-23T20:39:58.608Z,99899.31
2019-05-23T20:42:31.272Z,99893.87
2019-05-23T20:45:02.287Z,99893.39
2019-05-23T20:47:33.656Z,99896.00
2019-05-23T20:50:04.328Z,99899.31
2019-05-23T20:52:34.823Z,99888.13
2019-05-23T20:55:05.566Z,99886.80
2019-05-23T20:57:35.973Z,99882.48
2019-05-23T21:00:08.794Z,99881.33
2019-05-23T21:02:39.581Z,99874.70
2019-05-23T21:05:11.744Z,99877.04
2019-05-23T21:07:42.370Z,99877.22
2019-05-23T21:10:16.154Z,99888.31
2019-05-23T21:12:47.037Z,99886.53
2019-05-23T21:15:17.559Z,99890.52
2019-05-23T21:17:48.063Z,99887.23
2019-05-23T21:20:18.524Z,99885.88
2019-05-23T21:22:49.224Z,99884.03
2019-05-23T21:25:19.799Z,99884.34
2019-05-23T21:27:50.276Z,99886.81
2019-05-23T21:30:20.981Z,99884.82
2019-05-23T21:32:51.510Z,99878.68
2019-05-23T21:35:22.419Z,99880.97
2019-05-23T21:37:56.128Z,99882.65
2019-05-23T21:40:46.080Z,99879.34
2019-05-23T21:43:17.089Z,99878.50
2019-05-23T21:45:47.615Z,99875.36
2019-05-23T21:51:01.276Z,99877.88
2019-05-23T21:53:32.468Z,99877.22
2019-05-23T21:56:02.889Z,99875.59
2019-05-23T21:58:33.350Z,99880.75
2019-05-23T22:01:26.544Z,99879.39
2019-05-23T22:04:14.808Z,99882.56
2019-05-23T22:07:04.797Z,99878.28
2019-05-23T22:09:35.940Z,99877.58
2019-05-23T22:12:09.011Z,99879.91
2019-05-23T22:14:40.067Z,99875.89
2019-05-23T22:17:10.721Z,99873.91
2019-05-23T22:19:41.139Z,99874.70
2019-05-23T22:22:12.191Z,99867.64
2019-05-23T22:24:42.810Z,99870.64
2019-05-23T22:27:14.605Z,99875.14
2019-05-23T22:29:45.195Z,99866.17
2019-05-23T22:32:18.191Z,99869.31
2019-05-23T22:35:02.356Z,99865.33
2019-05-23T22:37:33.110Z,99868.61
2019-05-23T22:40:04.214Z,99868.44
2019-05-23T22:42:34.884Z,99868.16
2019-05-23T22:45:09.928Z,99868.96
2019-05-23T22:47:40.651Z,99871.61
2019-05-23T22:50:11.424Z,99870.33
2019-05-23T22:52:41.734Z,99866.00
2019-05-23T22:55:12.359Z,99863.34
2019-05-23T22:57:42.949Z,99864.37
2019-05-23T23:00:15.626Z,99866.50
2019-05-23T23:02:46.377Z,99865.34
2019-05-23T23:05:17.001Z,99863.54
2019-05-23T23:07:47.470Z,99865.39
2019-05-23T23:10:18.215Z,99854.44
2019-05-23T23:12:48.772Z,99848.30
2019-05-23T23:15:19.732Z,99844.14
2019-05-23T23:17:50.309Z,99832.58
2019-05-23T23:20:20.891Z,99833.20
2019-05-23T23:22:51.363Z,99825.78
2019-05-23T23:25:22.427Z,99823.83
2019-05-23T23:27:53.150Z,99822.61
2019-05-23T23:30:27.503Z,99824.28
2019-05-23T23:32:58.092Z,99806.89
2019-05-23T23:35:28.517Z,99815.86
2019-05-23T23:37:59.034Z,99815.72
2019-05-23T23:40:29.540Z,99803.48
2019-05-23T23:42:59.993Z,99813.77
2019-05-23T23:45:48.333Z,99801.71
2019-05-23T23:48:36.174Z,99806.48
2019-05-23T23:51:24.634Z,99792.44
2019-05-23T23:54:12.454Z,99789.27
2019-05-23T23:57:00.610Z,99790.98
2019-05-23T23:59:30.363Z,99779.77
